DAL7581 KLAX-KSAN
Flight info
| Callsign | DAL7581 |
|---|---|
| Flight time | 0h 34m |
| Altitude | 24000 |
| Route | DOTSS2 CLEEE MOMAR LUCKI1 |
| Aircraft | A21N/M-SDE2E3FGHIRWXY/LB1 |
Departure
| Time | 2026-04-26 01:51 |
|---|---|
| Airport | Los Angeles International Airport (KLAX) |
Arrival
| Time | 2026-04-26 02:26 |
|---|---|
| Airport | San Diego International Airport (KSAN) |
| Time | Latitude | Longitude | Altitude | Speed | Heading |
|---|---|---|---|---|---|
| 2026-04-26 01:19 | 33.94674 | -118.40650 | 120 ft | 0 kts | 263° |
| 2026-04-26 01:25 | 33.94675 | -118.40635 | 120 ft | 2 kts | 264° |
| 2026-04-26 01:25 | 33.94677 | -118.40617 | 120 ft | 2 kts | 261° |
| 2026-04-26 01:25 | 33.94674 | -118.40601 | 120 ft | 2 kts | 316° |
| 2026-04-26 01:26 | 33.94665 | -118.40594 | 120 ft | 0 kts | 349° |
| 2026-04-26 01:26 | 33.94658 | -118.40593 | 120 ft | 1 kts | 353° |
| 2026-04-26 01:26 | 33.94657 | -118.40593 | 120 ft | 0 kts | 353° |
| 2026-04-26 01:35 | 33.94659 | -118.40593 | 120 ft | 2 kts | 353° |
| 2026-04-26 01:35 | 33.94733 | -118.40599 | 120 ft | 14 kts | 352° |
| 2026-04-26 01:35 | 33.94772 | -118.40681 | 121 ft | 13 kts | 263° |
| 2026-04-26 01:36 | 33.94764 | -118.40785 | 122 ft | 12 kts | 264° |
| 2026-04-26 01:36 | 33.94750 | -118.40932 | 122 ft | 19 kts | 263° |
| 2026-04-26 01:36 | 33.94733 | -118.41083 | 124 ft | 17 kts | 263° |
| 2026-04-26 01:37 | 33.94673 | -118.41357 | 121 ft | 17 kts | 227° |
| 2026-04-26 01:37 | 33.94570 | -118.41370 | 120 ft | 14 kts | 174° |
| 2026-04-26 01:37 | 33.94471 | -118.41354 | 120 ft | 13 kts | 173° |
| 2026-04-26 01:37 | 33.94378 | -118.41340 | 120 ft | 13 kts | 173° |
| 2026-04-26 01:38 | 33.94282 | -118.41326 | 120 ft | 13 kts | 173° |
| 2026-04-26 01:38 | 33.94170 | -118.41309 | 121 ft | 17 kts | 173° |
| 2026-04-26 01:38 | 33.94055 | -118.41290 | 122 ft | 15 kts | 174° |
| 2026-04-26 01:38 | 33.93949 | -118.41278 | 125 ft | 14 kts | 176° |
| 2026-04-26 01:39 | 33.93853 | -118.41265 | 126 ft | 13 kts | 172° |
| 2026-04-26 01:39 | 33.93769 | -118.41232 | 127 ft | 12 kts | 132° |
| 2026-04-26 01:39 | 33.93763 | -118.41132 | 127 ft | 12 kts | 84° |
| 2026-04-26 01:39 | 33.93774 | -118.41022 | 127 ft | 13 kts | 83° |
| 2026-04-26 01:40 | 33.93788 | -118.40890 | 127 ft | 22 kts | 83° |
| 2026-04-26 01:40 | 33.93807 | -118.40707 | 127 ft | 21 kts | 84° |
| 2026-04-26 01:40 | 33.93827 | -118.40529 | 124 ft | 21 kts | 84° |
| 2026-04-26 01:40 | 33.93844 | -118.40346 | 121 ft | 22 kts | 83° |
| 2026-04-26 01:41 | 33.93864 | -118.40162 | 120 ft | 21 kts | 83° |
| 2026-04-26 01:41 | 33.93882 | -118.39977 | 117 ft | 22 kts | 83° |
| 2026-04-26 01:41 | 33.93901 | -118.39781 | 113 ft | 23 kts | 83° |
| 2026-04-26 01:41 | 33.93922 | -118.39585 | 110 ft | 23 kts | 83° |
| 2026-04-26 01:42 | 33.93942 | -118.39392 | 108 ft | 23 kts | 83° |
| 2026-04-26 01:42 | 33.93962 | -118.39198 | 107 ft | 23 kts | 83° |
| 2026-04-26 01:42 | 33.93980 | -118.39004 | 104 ft | 23 kts | 82° |
| 2026-04-26 01:42 | 33.94000 | -118.38813 | 104 ft | 22 kts | 83° |
| 2026-04-26 01:43 | 33.94018 | -118.38628 | 104 ft | 21 kts | 83° |
| 2026-04-26 01:43 | 33.94037 | -118.38452 | 103 ft | 21 kts | 83° |
| 2026-04-26 01:43 | 33.94057 | -118.38272 | 101 ft | 20 kts | 83° |
| 2026-04-26 01:43 | 33.94068 | -118.38169 | 101 ft | 8 kts | 84° |
| 2026-04-26 01:44 | 33.94069 | -118.38150 | 101 ft | 0 kts | 84° |
| 2026-04-26 01:44 | 33.94070 | -118.38146 | 101 ft | 0 kts | 84° |
| 2026-04-26 01:45 | 33.94072 | -118.38120 | 101 ft | 8 kts | 83° |
| 2026-04-26 01:45 | 33.94078 | -118.38057 | 101 ft | 7 kts | 86° |
| 2026-04-26 01:45 | 33.94076 | -118.38038 | 101 ft | 0 kts | 102° |
| 2026-04-26 01:45 | 33.94075 | -118.38032 | 101 ft | 0 kts | 115° |
| 2026-04-26 01:49 | 33.94040 | -118.38004 | 101 ft | 10 kts | 165° |
| 2026-04-26 01:49 | 33.93985 | -118.38031 | 101 ft | 9 kts | 254° |
| 2026-04-26 01:50 | 33.93981 | -118.38054 | 101 ft | 0 kts | 262° |
| 2026-04-26 01:50 | 33.93981 | -118.38057 | 101 ft | 0 kts | 263° |
| 2026-04-26 01:50 | 33.93980 | -118.38061 | 101 ft | 2 kts | 262° |
| 2026-04-26 01:51 | 33.93951 | -118.38343 | 101 ft | 77 kts | 263° |
| 2026-04-26 01:51 | 33.93850 | -118.39332 | 108 ft | 154 kts | 262° |
| 2026-04-26 01:51 | 33.93711 | -118.40700 | 689 ft | 171 kts | 260° |
| 2026-04-26 01:51 | 33.93519 | -118.42117 | 1512 ft | 180 kts | 259° |
| 2026-04-26 01:52 | 33.93318 | -118.43629 | 2323 ft | 185 kts | 262° |
| 2026-04-26 01:52 | 33.93142 | -118.45208 | 2805 ft | 200 kts | 257° |
| 2026-04-26 01:52 | 33.92538 | -118.46806 | 3067 ft | 228 kts | 236° |
| 2026-04-26 01:52 | 33.91530 | -118.48412 | 3550 ft | 246 kts | 233° |
| 2026-04-26 01:53 | 33.90293 | -118.49873 | 4204 ft | 258 kts | 217° |
| 2026-04-26 01:53 | 33.88774 | -118.51023 | 5035 ft | 261 kts | 213° |
| 2026-04-26 01:53 | 33.87201 | -118.52102 | 5866 ft | 263 kts | 212° |
| 2026-04-26 01:53 | 33.85606 | -118.53182 | 6521 ft | 265 kts | 211° |
| 2026-04-26 01:54 | 33.83995 | -118.54274 | 7113 ft | 270 kts | 212° |
| 2026-04-26 01:54 | 33.82370 | -118.55373 | 7964 ft | 269 kts | 212° |
| 2026-04-26 01:54 | 33.80751 | -118.56466 | 8795 ft | 269 kts | 212° |
| 2026-04-26 01:54 | 33.79118 | -118.57565 | 9563 ft | 270 kts | 212° |
| 2026-04-26 01:55 | 33.77480 | -118.58659 | 10318 ft | 270 kts | 212° |
| 2026-04-26 01:55 | 33.75827 | -118.59757 | 11021 ft | 272 kts | 212° |
| 2026-04-26 01:55 | 33.74180 | -118.60843 | 11693 ft | 274 kts | 212° |
| 2026-04-26 01:55 | 33.72494 | -118.61938 | 12375 ft | 275 kts | 212° |
| 2026-04-26 01:56 | 33.70792 | -118.62980 | 12809 ft | 279 kts | 205° |
| 2026-04-26 01:56 | 33.68867 | -118.63352 | 12974 ft | 289 kts | 181° |
| 2026-04-26 01:56 | 33.66898 | -118.62665 | 12974 ft | 302 kts | 156° |
| 2026-04-26 01:56 | 33.65300 | -118.60990 | 12976 ft | 316 kts | 132° |
| 2026-04-26 01:57 | 33.64350 | -118.58558 | 12980 ft | 327 kts | 109° |
| 2026-04-26 01:57 | 33.63920 | -118.55882 | 12977 ft | 329 kts | 103° |
| 2026-04-26 01:57 | 33.63599 | -118.53153 | 12966 ft | 329 kts | 102° |
| 2026-04-26 01:57 | 33.63303 | -118.50446 | 12971 ft | 330 kts | 102° |
| 2026-04-26 01:58 | 33.63007 | -118.47728 | 12975 ft | 330 kts | 101° |
| 2026-04-26 01:58 | 33.62711 | -118.45016 | 12980 ft | 329 kts | 102° |
| 2026-04-26 01:58 | 33.62415 | -118.42259 | 12978 ft | 329 kts | 101° |
| 2026-04-26 01:58 | 33.62124 | -118.39537 | 12977 ft | 330 kts | 101° |
| 2026-04-26 01:59 | 33.61841 | -118.36839 | 12979 ft | 330 kts | 101° |
| 2026-04-26 01:59 | 33.61446 | -118.34126 | 12965 ft | 325 kts | 114° |
| 2026-04-26 01:59 | 33.60416 | -118.31803 | 12974 ft | 315 kts | 131° |
| 2026-04-26 01:59 | 33.59101 | -118.29685 | 12978 ft | 314 kts | 134° |
| 2026-04-26 02:00 | 33.57777 | -118.27605 | 12987 ft | 323 kts | 133° |
| 2026-04-26 02:00 | 33.56401 | -118.25381 | 12986 ft | 336 kts | 132° |
| 2026-04-26 02:00 | 33.55035 | -118.23083 | 12982 ft | 339 kts | 131° |
| 2026-04-26 02:00 | 33.53688 | -118.20758 | 12984 ft | 338 kts | 130° |
| 2026-04-26 02:01 | 33.52410 | -118.18512 | 12976 ft | 323 kts | 130° |
| 2026-04-26 02:01 | 33.51154 | -118.16291 | 12971 ft | 316 kts | 130° |
| 2026-04-26 02:01 | 33.49934 | -118.14138 | 12975 ft | 316 kts | 130° |
| 2026-04-26 02:01 | 33.48686 | -118.11934 | 12976 ft | 316 kts | 130° |
| 2026-04-26 02:02 | 33.47464 | -118.09776 | 12971 ft | 316 kts | 130° |
| 2026-04-26 02:02 | 33.46223 | -118.07577 | 12977 ft | 316 kts | 130° |
| 2026-04-26 02:02 | 33.45007 | -118.05424 | 12970 ft | 315 kts | 130° |
| 2026-04-26 02:02 | 33.43764 | -118.03230 | 12970 ft | 315 kts | 130° |
| 2026-04-26 02:03 | 33.42543 | -118.01069 | 12961 ft | 315 kts | 130° |
| 2026-04-26 02:03 | 33.41317 | -117.98902 | 12963 ft | 314 kts | 130° |
| 2026-04-26 02:03 | 33.40082 | -117.96720 | 12968 ft | 315 kts | 130° |
| 2026-04-26 02:03 | 33.38862 | -117.94563 | 12972 ft | 315 kts | 130° |
| 2026-04-26 02:04 | 33.37641 | -117.92406 | 12961 ft | 314 kts | 130° |
| 2026-04-26 02:04 | 33.36408 | -117.90229 | 12977 ft | 315 kts | 130° |
| 2026-04-26 02:04 | 33.35177 | -117.88061 | 12972 ft | 315 kts | 130° |
| 2026-04-26 02:04 | 33.33950 | -117.85899 | 12974 ft | 315 kts | 130° |
| 2026-04-26 02:05 | 33.32688 | -117.83686 | 12978 ft | 331 kts | 130° |
| 2026-04-26 02:05 | 33.31376 | -117.81387 | 12972 ft | 337 kts | 130° |
| 2026-04-26 02:05 | 33.30045 | -117.79045 | 12981 ft | 339 kts | 131° |
| 2026-04-26 02:05 | 33.28720 | -117.76717 | 12977 ft | 338 kts | 130° |
| 2026-04-26 02:06 | 33.27408 | -117.74410 | 12964 ft | 339 kts | 130° |
| 2026-04-26 02:06 | 33.26078 | -117.72072 | 12962 ft | 339 kts | 130° |
| 2026-04-26 02:06 | 33.24749 | -117.69736 | 12970 ft | 339 kts | 130° |
| 2026-04-26 02:06 | 33.23418 | -117.67401 | 12966 ft | 339 kts | 130° |
| 2026-04-26 02:07 | 33.22101 | -117.65095 | 12975 ft | 339 kts | 130° |
| 2026-04-26 02:07 | 33.20760 | -117.62747 | 12986 ft | 339 kts | 130° |
| 2026-04-26 02:07 | 33.19444 | -117.60445 | 12987 ft | 339 kts | 130° |
| 2026-04-26 02:07 | 33.18119 | -117.58127 | 12973 ft | 339 kts | 130° |
| 2026-04-26 02:08 | 33.16777 | -117.55783 | 12977 ft | 340 kts | 130° |
| 2026-04-26 02:08 | 33.15458 | -117.53480 | 12986 ft | 339 kts | 130° |
| 2026-04-26 02:08 | 33.14116 | -117.51137 | 12988 ft | 339 kts | 130° |
| 2026-04-26 02:08 | 33.12810 | -117.48793 | 12830 ft | 343 kts | 126° |
| 2026-04-26 02:09 | 33.11713 | -117.46272 | 12514 ft | 342 kts | 122° |
| 2026-04-26 02:09 | 33.10696 | -117.43721 | 12144 ft | 340 kts | 121° |
| 2026-04-26 02:09 | 33.09699 | -117.41196 | 11751 ft | 336 kts | 120° |
| 2026-04-26 02:09 | 33.08723 | -117.38726 | 11353 ft | 323 kts | 120° |
| 2026-04-26 02:10 | 33.07781 | -117.36342 | 10948 ft | 315 kts | 120° |
| 2026-04-26 02:10 | 33.06854 | -117.34012 | 10552 ft | 311 kts | 121° |
| 2026-04-26 02:10 | 33.05930 | -117.31700 | 10149 ft | 308 kts | 121° |
| 2026-04-26 02:10 | 33.05002 | -117.29411 | 9758 ft | 305 kts | 121° |
| 2026-04-26 02:11 | 33.04084 | -117.27171 | 9363 ft | 303 kts | 121° |
| 2026-04-26 02:11 | 33.03147 | -117.24905 | 8959 ft | 301 kts | 121° |
| 2026-04-26 02:11 | 33.02218 | -117.22696 | 8563 ft | 298 kts | 121° |
| 2026-04-26 02:11 | 33.01289 | -117.20511 | 8165 ft | 296 kts | 121° |
| 2026-04-26 02:12 | 33.00361 | -117.18359 | 7768 ft | 294 kts | 121° |
| 2026-04-26 02:12 | 32.99417 | -117.16195 | 7369 ft | 291 kts | 121° |
| 2026-04-26 02:12 | 32.98485 | -117.14088 | 6972 ft | 289 kts | 121° |
| 2026-04-26 02:12 | 32.97532 | -117.11961 | 6570 ft | 287 kts | 120° |
| 2026-04-26 02:13 | 32.96587 | -117.09890 | 6176 ft | 285 kts | 121° |
| 2026-04-26 02:13 | 32.95656 | -117.07864 | 6007 ft | 273 kts | 121° |
| 2026-04-26 02:13 | 32.94761 | -117.05914 | 6003 ft | 265 kts | 121° |
| 2026-04-26 02:13 | 32.93881 | -117.03996 | 6005 ft | 265 kts | 121° |
| 2026-04-26 02:14 | 32.92999 | -117.02080 | 6002 ft | 265 kts | 121° |
| 2026-04-26 02:14 | 32.92144 | -117.00202 | 5990 ft | 249 kts | 121° |
| 2026-04-26 02:14 | 32.91337 | -116.98424 | 5990 ft | 239 kts | 121° |
| 2026-04-26 02:14 | 32.90550 | -116.96692 | 6000 ft | 239 kts | 121° |
| 2026-04-26 02:15 | 32.89729 | -116.94994 | 6001 ft | 237 kts | 127° |
| 2026-04-26 02:15 | 32.88753 | -116.93397 | 6006 ft | 237 kts | 130° |
| 2026-04-26 02:15 | 32.87743 | -116.91836 | 6007 ft | 237 kts | 131° |
| 2026-04-26 02:15 | 32.86737 | -116.90291 | 6005 ft | 237 kts | 130° |
| 2026-04-26 02:16 | 32.85720 | -116.88736 | 6001 ft | 237 kts | 130° |
| 2026-04-26 02:16 | 32.84718 | -116.87197 | 6002 ft | 237 kts | 130° |
| 2026-04-26 02:16 | 32.83698 | -116.85632 | 6000 ft | 237 kts | 131° |
| 2026-04-26 02:16 | 32.82688 | -116.84079 | 6001 ft | 238 kts | 131° |
| 2026-04-26 02:17 | 32.81668 | -116.82526 | 5955 ft | 238 kts | 135° |
| 2026-04-26 02:17 | 32.80363 | -116.81412 | 5690 ft | 228 kts | 166° |
| 2026-04-26 02:17 | 32.78820 | -116.81221 | 5462 ft | 222 kts | 186° |
| 2026-04-26 02:17 | 32.77279 | -116.81382 | 5216 ft | 221 kts | 190° |
| 2026-04-26 02:18 | 32.75745 | -116.81608 | 4999 ft | 220 kts | 190° |
| 2026-04-26 02:18 | 32.74222 | -116.81844 | 4969 ft | 221 kts | 190° |
| 2026-04-26 02:18 | 32.72698 | -116.82082 | 4961 ft | 221 kts | 191° |
| 2026-04-26 02:18 | 32.71172 | -116.82380 | 4949 ft | 219 kts | 201° |
| 2026-04-26 02:19 | 32.69948 | -116.83347 | 4937 ft | 214 kts | 235° |
| 2026-04-26 02:19 | 32.69239 | -116.84898 | 4968 ft | 213 kts | 248° |
| 2026-04-26 02:19 | 32.68700 | -116.86540 | 4958 ft | 213 kts | 250° |
| 2026-04-26 02:19 | 32.68197 | -116.88176 | 4951 ft | 212 kts | 250° |
| 2026-04-26 02:20 | 32.67699 | -116.89818 | 4949 ft | 213 kts | 250° |
| 2026-04-26 02:20 | 32.67197 | -116.91475 | 4792 ft | 215 kts | 251° |
| 2026-04-26 02:20 | 32.66939 | -116.93225 | 4285 ft | 222 kts | 276° |
| 2026-04-26 02:20 | 32.67409 | -116.94969 | 3887 ft | 224 kts | 294° |
| 2026-04-26 02:21 | 32.68101 | -116.96604 | 3757 ft | 212 kts | 294° |
| 2026-04-26 02:21 | 32.68495 | -116.98182 | 3681 ft | 190 kts | 278° |
| 2026-04-26 02:21 | 32.68813 | -116.99624 | 3534 ft | 178 kts | 287° |
| 2026-04-26 02:21 | 32.69125 | -117.00989 | 3570 ft | 161 kts | 282° |
| 2026-04-26 02:22 | 32.69326 | -117.02212 | 3358 ft | 145 kts | 279° |
| 2026-04-26 02:22 | 32.69555 | -117.03352 | 2948 ft | 142 kts | 286° |
| 2026-04-26 02:22 | 32.69823 | -117.04452 | 2615 ft | 137 kts | 284° |
| 2026-04-26 02:22 | 32.70086 | -117.05549 | 2448 ft | 138 kts | 285° |
| 2026-04-26 02:23 | 32.70338 | -117.06645 | 2287 ft | 137 kts | 280° |
| 2026-04-26 02:23 | 32.70610 | -117.07750 | 2049 ft | 138 kts | 284° |
| 2026-04-26 02:23 | 32.70864 | -117.08838 | 1820 ft | 137 kts | 284° |
| 2026-04-26 02:23 | 32.71170 | -117.09901 | 1629 ft | 137 kts | 283° |
| 2026-04-26 02:24 | 32.71425 | -117.10995 | 1405 ft | 137 kts | 282° |
| 2026-04-26 02:24 | 32.71681 | -117.12090 | 1180 ft | 137 kts | 283° |
| 2026-04-26 02:24 | 32.71938 | -117.13176 | 974 ft | 137 kts | 283° |
| 2026-04-26 02:24 | 32.72211 | -117.14262 | 801 ft | 136 kts | 282° |
| 2026-04-26 02:25 | 32.72474 | -117.15344 | 610 ft | 137 kts | 284° |
| 2026-04-26 02:25 | 32.72734 | -117.16421 | 392 ft | 136 kts | 283° |
| 2026-04-26 02:25 | 32.73002 | -117.17510 | 165 ft | 136 kts | 283° |
| 2026-04-26 02:25 | 32.73260 | -117.18568 | 23 ft | 128 kts | 283° |
| 2026-04-26 02:26 | 32.73464 | -117.19417 | 23 ft | 83 kts | 286° |
| 2026-04-26 02:26 | 32.73529 | -117.19784 | 20 ft | 7 kts | 257° |
| 2026-04-26 02:26 | 32.73521 | -117.19817 | 20 ft | 0 kts | 249° |
| 2026-04-26 02:26 | 32.73522 | -117.19823 | 20 ft | 3 kts | 291° |
| 2026-04-26 02:27 | 32.73562 | -117.19885 | 20 ft | 15 kts | 300° |
| 2026-04-26 02:27 | 32.73603 | -117.20003 | 20 ft | 17 kts | 289° |
| 2026-04-26 02:27 | 32.73609 | -117.20155 | 20 ft | 18 kts | 244° |
| 2026-04-26 02:27 | 32.73549 | -117.20185 | 20 ft | 2 kts | 111° |
| 2026-04-26 02:28 | 32.73548 | -117.20184 | 20 ft | 0 kts | 110° |
| 2026-04-26 02:28 | 32.73524 | -117.20095 | 20 ft | 22 kts | 107° |
| 2026-04-26 02:29 | 32.73459 | -117.20048 | 20 ft | 8 kts | 212° |
| 2026-04-26 02:29 | 32.73421 | -117.20077 | 20 ft | 0 kts | 211° |